sensor_id;sensor_type;location;lat;lon;timestamp;P1;durP1;ratioP1;P2;durP2;ratioP2
20828;SDS011;10575;50.124;8.582;2022-12-07T00:02:17;22.88;;;11.60;;
20828;SDS011;10575;50.124;8.582;2022-12-07T00:04:42;27.92;;;13.55;;
20828;SDS011;10575;50.124;8.582;2022-12-07T00:07:08;21.73;;;11.43;;
20828;SDS011;10575;50.124;8.582;2022-12-07T00:09:33;29.88;;;12.73;;
20828;SDS011;10575;50.124;8.582;2022-12-07T00:11:59;25.88;;;12.90;;
20828;SDS011;10575;50.124;8.582;2022-12-07T00:14:24;27.10;;;12.63;;
20828;SDS011;10575;50.124;8.582;2022-12-07T00:16:50;24.80;;;12.82;;
20828;SDS011;10575;50.124;8.582;2022-12-07T00:19:16;25.33;;;12.23;;
20828;SDS011;10575;50.124;8.582;2022-12-07T00:21:42;23.52;;;12.35;;
20828;SDS011;10575;50.124;8.582;2022-12-07T00:24:08;24.00;;;11.70;;
20828;SDS011;10575;50.124;8.582;2022-12-07T00:26:35;25.15;;;11.95;;
20828;SDS011;10575;50.124;8.582;2022-12-07T00:29:04;22.77;;;11.50;;
20828;SDS011;10575;50.124;8.582;2022-12-07T00:31:35;25.52;;;11.77;;
20828;SDS011;10575;50.124;8.582;2022-12-07T00:34:03;27.50;;;12.73;;
20828;SDS011;10575;50.124;8.582;2022-12-07T00:36:30;23.13;;;12.07;;
20828;SDS011;10575;50.124;8.582;2022-12-07T00:38:59;26.60;;;13.05;;
20828;SDS011;10575;50.124;8.582;2022-12-07T00:41:26;23.80;;;12.82;;
20828;SDS011;10575;50.124;8.582;2022-12-07T00:43:52;26.40;;;12.02;;
20828;SDS011;10575;50.124;8.582;2022-12-07T00:46:19;21.42;;;11.45;;
20828;SDS011;10575;50.124;8.582;2022-12-07T00:48:45;24.35;;;11.95;;
20828;SDS011;10575;50.124;8.582;2022-12-07T00:51:12;26.70;;;11.63;;
20828;SDS011;10575;50.124;8.582;2022-12-07T00:53:39;23.50;;;12.55;;
20828;SDS011;10575;50.124;8.582;2022-12-07T00:56:08;27.20;;;13.38;;
20828;SDS011;10575;50.124;8.582;2022-12-07T00:58:36;21.15;;;11.85;;
20828;SDS011;10575;50.124;8.582;2022-12-07T01:01:02;25.55;;;12.05;;
20828;SDS011;10575;50.124;8.582;2022-12-07T01:03:29;26.42;;;12.95;;
20828;SDS011;10575;50.124;8.582;2022-12-07T01:05:55;23.90;;;11.23;;
20828;SDS011;10575;50.124;8.582;2022-12-07T01:08:22;22.75;;;11.85;;
20828;SDS011;10575;50.124;8.582;2022-12-07T01:10:48;25.10;;;11.77;;
20828;SDS011;10575;50.124;8.582;2022-12-07T01:13:14;25.15;;;11.70;;
20828;SDS011;10575;50.124;8.582;2022-12-07T01:15:41;27.90;;;11.32;;
20828;SDS011;10575;50.124;8.582;2022-12-07T01:18:07;24.38;;;11.75;;
20828;SDS011;10575;50.124;8.582;2022-12-07T01:20:32;25.70;;;11.93;;
20828;SDS011;10575;50.124;8.582;2022-12-07T01:22:58;24.52;;;10.68;;
20828;SDS011;10575;50.124;8.582;2022-12-07T01:25:23;22.02;;;11.65;;
20828;SDS011;10575;50.124;8.582;2022-12-07T01:27:49;23.50;;;11.55;;
20828;SDS011;10575;50.124;8.582;2022-12-07T01:30:14;23.67;;;10.85;;
20828;SDS011;10575;50.124;8.582;2022-12-07T01:32:40;25.45;;;11.52;;
20828;SDS011;10575;50.124;8.582;2022-12-07T01:35:06;27.48;;;12.27;;
20828;SDS011;10575;50.124;8.582;2022-12-07T01:37:35;24.67;;;11.43;;
20828;SDS011;10575;50.124;8.582;2022-12-07T01:40:02;24.20;;;11.32;;
20828;SDS011;10575;50.124;8.582;2022-12-07T01:42:28;23.25;;;11.40;;
20828;SDS011;10575;50.124;8.582;2022-12-07T01:47:54;22.73;;;11.55;;
20828;SDS011;10575;50.124;8.582;2022-12-07T01:50:21;25.95;;;11.85;;
20828;SDS011;10575;50.124;8.582;2022-12-07T01:52:50;24.38;;;11.23;;
20828;SDS011;10575;50.124;8.582;2022-12-07T01:55:18;20.27;;;10.85;;
20828;SDS011;10575;50.124;8.582;2022-12-07T01:57:45;24.25;;;10.35;;
20828;SDS011;10575;50.124;8.582;2022-12-07T02:00:14;23.85;;;10.60;;
20828;SDS011;10575;50.124;8.582;2022-12-07T02:02:42;23.42;;;10.70;;
20828;SDS011;10575;50.124;8.582;2022-12-07T02:05:18;25.40;;;11.30;;
20828;SDS011;10575;50.124;8.582;2022-12-07T02:07:44;23.13;;;10.13;;
20828;SDS011;10575;50.124;8.582;2022-12-07T02:10:13;23.70;;;10.65;;
20828;SDS011;10575;50.124;8.582;2022-12-07T02:12:38;21.92;;;9.77;;
20828;SDS011;10575;50.124;8.582;2022-12-07T02:15:04;20.83;;;10.45;;
20828;SDS011;10575;50.124;8.582;2022-12-07T02:26:32;21.35;;;10.25;;
20828;SDS011;10575;50.124;8.582;2022-12-07T02:35:37;22.83;;;10.60;;
20828;SDS011;10575;50.124;8.582;2022-12-07T02:41:13;22.65;;;11.00;;
20828;SDS011;10575;50.124;8.582;2022-12-07T02:43:54;23.00;;;10.18;;
20828;SDS011;10575;50.124;8.582;2022-12-07T02:46:24;18.65;;;9.45;;
20828;SDS011;10575;50.124;8.582;2022-12-07T02:48:53;19.98;;;9.77;;
20828;SDS011;10575;50.124;8.582;2022-12-07T02:51:21;24.00;;;9.88;;
20828;SDS011;10575;50.124;8.582;2022-12-07T02:53:47;21.70;;;9.75;;
20828;SDS011;10575;50.124;8.582;2022-12-07T02:58:59;26.80;;;10.43;;
20828;SDS011;10575;50.124;8.582;2022-12-07T03:01:39;17.42;;;9.35;;
20828;SDS011;10575;50.124;8.582;2022-12-07T03:04:32;19.13;;;8.88;;
20828;SDS011;10575;50.124;8.582;2022-12-07T03:07:21;21.63;;;9.70;;
20828;SDS011;10575;50.124;8.582;2022-12-07T03:10:27;20.27;;;9.95;;
20828;SDS011;10575;50.124;8.582;2022-12-07T03:13:16;23.05;;;9.25;;
20828;SDS011;10575;50.124;8.582;2022-12-07T03:16:08;19.38;;;9.13;;
20828;SDS011;10575;50.124;8.582;2022-12-07T03:18:44;22.98;;;9.93;;
20828;SDS011;10575;50.124;8.582;2022-12-07T03:21:25;16.38;;;8.68;;
20828;SDS011;10575;50.124;8.582;2022-12-07T03:23:54;21.92;;;9.07;;
20828;SDS011;10575;50.124;8.582;2022-12-07T03:26:21;19.35;;;9.02;;
20828;SDS011;10575;50.124;8.582;2022-12-07T03:28:54;22.08;;;9.32;;
20828;SDS011;10575;50.124;8.582;2022-12-07T03:31:28;18.15;;;8.80;;
20828;SDS011;10575;50.124;8.582;2022-12-07T03:34:05;23.40;;;9.95;;
20828;SDS011;10575;50.124;8.582;2022-12-07T03:36:47;23.92;;;8.95;;
20828;SDS011;10575;50.124;8.582;2022-12-07T03:41:56;17.70;;;9.50;;
20828;SDS011;10575;50.124;8.582;2022-12-07T03:44:24;15.73;;;8.10;;
20828;SDS011;10575;50.124;8.582;2022-12-07T03:49:40;16.00;;;8.10;;
20828;SDS011;10575;50.124;8.582;2022-12-07T03:55:10;19.10;;;8.13;;
20828;SDS011;10575;50.124;8.582;2022-12-07T03:57:42;19.50;;;8.30;;
20828;SDS011;10575;50.124;8.582;2022-12-07T04:00:10;16.25;;;8.50;;
20828;SDS011;10575;50.124;8.582;2022-12-07T04:02:36;18.67;;;8.25;;
20828;SDS011;10575;50.124;8.582;2022-12-07T04:05:02;16.10;;;8.05;;
20828;SDS011;10575;50.124;8.582;2022-12-07T04:07:28;15.05;;;8.10;;
20828;SDS011;10575;50.124;8.582;2022-12-07T04:09:54;16.83;;;7.90;;
20828;SDS011;10575;50.124;8.582;2022-12-07T04:12:22;19.00;;;8.05;;
20828;SDS011;10575;50.124;8.582;2022-12-07T04:14:48;18.88;;;7.70;;
20828;SDS011;10575;50.124;8.582;2022-12-07T04:17:14;18.10;;;8.43;;
20828;SDS011;10575;50.124;8.582;2022-12-07T04:19:40;18.27;;;8.02;;
20828;SDS011;10575;50.124;8.582;2022-12-07T04:22:05;17.05;;;8.57;;
20828;SDS011;10575;50.124;8.582;2022-12-07T04:24:32;16.80;;;8.85;;
20828;SDS011;10575;50.124;8.582;2022-12-07T04:26:58;22.25;;;9.02;;
20828;SDS011;10575;50.124;8.582;2022-12-07T04:29:24;18.70;;;8.60;;
20828;SDS011;10575;50.124;8.582;2022-12-07T04:31:50;15.63;;;7.75;;
20828;SDS011;10575;50.124;8.582;2022-12-07T04:34:16;13.85;;;7.20;;
20828;SDS011;10575;50.124;8.582;2022-12-07T04:36:42;17.02;;;7.93;;
20828;SDS011;10575;50.124;8.582;2022-12-07T04:39:09;17.55;;;8.13;;
20828;SDS011;10575;50.124;8.582;2022-12-07T04:41:46;14.65;;;7.28;;
20828;SDS011;10575;50.124;8.582;2022-12-07T04:44:12;14.82;;;7.45;;
20828;SDS011;10575;50.124;8.582;2022-12-07T04:46:39;15.88;;;7.88;;
20828;SDS011;10575;50.124;8.582;2022-12-07T04:49:05;15.57;;;7.30;;
20828;SDS011;10575;50.124;8.582;2022-12-07T04:51:30;16.75;;;7.10;;
20828;SDS011;10575;50.124;8.582;2022-12-07T04:53:56;17.30;;;7.85;;
20828;SDS011;10575;50.124;8.582;2022-12-07T04:56:22;16.45;;;7.80;;
20828;SDS011;10575;50.124;8.582;2022-12-07T04:58:48;15.18;;;7.38;;
20828;SDS011;10575;50.124;8.582;2022-12-07T05:01:16;15.18;;;7.63;;
20828;SDS011;10575;50.124;8.582;2022-12-07T05:03:42;15.57;;;7.68;;
20828;SDS011;10575;50.124;8.582;2022-12-07T05:06:08;14.75;;;7.57;;
20828;SDS011;10575;50.124;8.582;2022-12-07T05:08:35;18.20;;;7.70;;
20828;SDS011;10575;50.124;8.582;2022-12-07T05:11:02;15.80;;;8.30;;
20828;SDS011;10575;50.124;8.582;2022-12-07T05:13:28;18.30;;;8.13;;
20828;SDS011;10575;50.124;8.582;2022-12-07T05:15:54;19.95;;;8.88;;
20828;SDS011;10575;50.124;8.582;2022-12-07T05:18:19;16.83;;;7.93;;
20828;SDS011;10575;50.124;8.582;2022-12-07T05:20:45;16.40;;;7.05;;
20828;SDS011;10575;50.124;8.582;2022-12-07T05:23:11;21.38;;;9.25;;
20828;SDS011;10575;50.124;8.582;2022-12-07T05:25:37;22.58;;;10.95;;
20828;SDS011;10575;50.124;8.582;2022-12-07T05:28:03;16.45;;;8.30;;
20828;SDS011;10575;50.124;8.582;2022-12-07T05:30:29;19.23;;;8.65;;
20828;SDS011;10575;50.124;8.582;2022-12-07T05:32:54;16.92;;;8.23;;
20828;SDS011;10575;50.124;8.582;2022-12-07T05:35:20;17.13;;;8.57;;
20828;SDS011;10575;50.124;8.582;2022-12-07T05:37:45;15.07;;;7.75;;
20828;SDS011;10575;50.124;8.582;2022-12-07T05:40:11;15.25;;;7.53;;
20828;SDS011;10575;50.124;8.582;2022-12-07T05:42:39;14.63;;;7.57;;
20828;SDS011;10575;50.124;8.582;2022-12-07T05:45:05;18.25;;;8.35;;
20828;SDS011;10575;50.124;8.582;2022-12-07T05:47:31;16.50;;;8.48;;
20828;SDS011;10575;50.124;8.582;2022-12-07T05:49:56;14.52;;;8.15;;
20828;SDS011;10575;50.124;8.582;2022-12-07T05:52:22;19.48;;;9.65;;
20828;SDS011;10575;50.124;8.582;2022-12-07T05:54:48;17.42;;;9.07;;
20828;SDS011;10575;50.124;8.582;2022-12-07T05:57:13;18.10;;;8.68;;
20828;SDS011;10575;50.124;8.582;2022-12-07T05:59:39;18.85;;;9.02;;
20828;SDS011;10575;50.124;8.582;2022-12-07T06:02:09;16.08;;;8.10;;
20828;SDS011;10575;50.124;8.582;2022-12-07T06:04:38;21.17;;;8.45;;
20828;SDS011;10575;50.124;8.582;2022-12-07T06:07:11;15.73;;;7.22;;
20828;SDS011;10575;50.124;8.582;2022-12-07T06:09:38;15.80;;;7.65;;
20828;SDS011;10575;50.124;8.582;2022-12-07T06:12:04;15.18;;;8.27;;
20828;SDS011;10575;50.124;8.582;2022-12-07T06:14:51;15.82;;;7.75;;
20828;SDS011;10575;50.124;8.582;2022-12-07T06:17:16;14.95;;;8.73;;
20828;SDS011;10575;50.124;8.582;2022-12-07T06:19:42;18.40;;;8.75;;
20828;SDS011;10575;50.124;8.582;2022-12-07T06:22:10;16.98;;;8.70;;
20828;SDS011;10575;50.124;8.582;2022-12-07T06:24:37;18.38;;;8.82;;
20828;SDS011;10575;50.124;8.582;2022-12-07T06:27:03;22.90;;;8.73;;
20828;SDS011;10575;50.124;8.582;2022-12-07T06:29:29;15.50;;;8.27;;
20828;SDS011;10575;50.124;8.582;2022-12-07T06:31:55;16.33;;;8.93;;
20828;SDS011;10575;50.124;8.582;2022-12-07T06:34:21;17.73;;;9.52;;
20828;SDS011;10575;50.124;8.582;2022-12-07T06:36:47;22.17;;;9.70;;
20828;SDS011;10575;50.124;8.582;2022-12-07T06:39:16;17.65;;;9.10;;
20828;SDS011;10575;50.124;8.582;2022-12-07T06:41:43;18.63;;;9.88;;
20828;SDS011;10575;50.124;8.582;2022-12-07T06:44:09;21.00;;;10.23;;
20828;SDS011;10575;50.124;8.582;2022-12-07T06:46:34;21.48;;;10.85;;
20828;SDS011;10575;50.124;8.582;2022-12-07T06:49:03;24.77;;;10.88;;
20828;SDS011;10575;50.124;8.582;2022-12-07T06:51:29;23.20;;;10.80;;
20828;SDS011;10575;50.124;8.582;2022-12-07T06:53:55;18.02;;;10.18;;
20828;SDS011;10575;50.124;8.582;2022-12-07T06:56:21;22.95;;;10.93;;
20828;SDS011;10575;50.124;8.582;2022-12-07T06:58:47;24.85;;;11.40;;
20828;SDS011;10575;50.124;8.582;2022-12-07T07:01:15;21.10;;;10.82;;
20828;SDS011;10575;50.124;8.582;2022-12-07T07:03:43;27.52;;;13.75;;
20828;SDS011;10575;50.124;8.582;2022-12-07T07:06:09;20.77;;;10.77;;
20828;SDS011;10575;50.124;8.582;2022-12-07T07:08:36;21.83;;;10.40;;
20828;SDS011;10575;50.124;8.582;2022-12-07T07:11:03;27.85;;;14.25;;
20828;SDS011;10575;50.124;8.582;2022-12-07T07:13:29;24.42;;;11.80;;
20828;SDS011;10575;50.124;8.582;2022-12-07T07:15:54;20.67;;;10.57;;
20828;SDS011;10575;50.124;8.582;2022-12-07T07:18:20;22.35;;;12.07;;
20828;SDS011;10575;50.124;8.582;2022-12-07T07:20:46;19.65;;;10.50;;
20828;SDS011;10575;50.124;8.582;2022-12-07T07:23:11;20.88;;;10.70;;
20828;SDS011;10575;50.124;8.582;2022-12-07T07:25:37;22.63;;;11.15;;
20828;SDS011;10575;50.124;8.582;2022-12-07T07:28:03;18.98;;;10.15;;
20828;SDS011;10575;50.124;8.582;2022-12-07T07:30:29;21.52;;;10.82;;
20828;SDS011;10575;50.124;8.582;2022-12-07T07:32:58;17.42;;;9.15;;
20828;SDS011;10575;50.124;8.582;2022-12-07T07:35:24;20.50;;;10.65;;
20828;SDS011;10575;50.124;8.582;2022-12-07T07:37:50;19.02;;;9.23;;
20828;SDS011;10575;50.124;8.582;2022-12-07T07:40:16;19.25;;;9.45;;
20828;SDS011;10575;50.124;8.582;2022-12-07T07:42:41;19.00;;;10.25;;
20828;SDS011;10575;50.124;8.582;2022-12-07T07:45:07;21.23;;;10.48;;
20828;SDS011;10575;50.124;8.582;2022-12-07T07:47:33;19.05;;;9.52;;
20828;SDS011;10575;50.124;8.582;2022-12-07T07:49:59;21.33;;;11.00;;
20828;SDS011;10575;50.124;8.582;2022-12-07T07:52:24;24.42;;;12.43;;
20828;SDS011;10575;50.124;8.582;2022-12-07T07:54:50;24.00;;;12.82;;
20828;SDS011;10575;50.124;8.582;2022-12-07T07:57:16;48.78;;;25.75;;
20828;SDS011;10575;50.124;8.582;2022-12-07T07:59:42;36.15;;;19.50;;
20828;SDS011;10575;50.124;8.582;2022-12-07T08:02:17;24.35;;;12.75;;
20828;SDS011;10575;50.124;8.582;2022-12-07T08:04:44;16.65;;;9.30;;
20828;SDS011;10575;50.124;8.582;2022-12-07T08:07:10;23.23;;;10.32;;
20828;SDS011;10575;50.124;8.582;2022-12-07T08:09:38;20.35;;;10.50;;
20828;SDS011;10575;50.124;8.582;2022-12-07T08:12:04;18.13;;;9.30;;
20828;SDS011;10575;50.124;8.582;2022-12-07T08:14:30;19.17;;;10.13;;
20828;SDS011;10575;50.124;8.582;2022-12-07T08:16:56;22.10;;;11.15;;
20828;SDS011;10575;50.124;8.582;2022-12-07T08:19:22;28.30;;;15.65;;
20828;SDS011;10575;50.124;8.582;2022-12-07T08:21:47;20.15;;;10.98;;
20828;SDS011;10575;50.124;8.582;2022-12-07T08:24:13;32.33;;;18.35;;
20828;SDS011;10575;50.124;8.582;2022-12-07T08:26:39;28.52;;;16.08;;
20828;SDS011;10575;50.124;8.582;2022-12-07T08:29:05;21.52;;;10.95;;
20828;SDS011;10575;50.124;8.582;2022-12-07T08:31:31;20.50;;;10.68;;
20828;SDS011;10575;50.124;8.582;2022-12-07T08:33:56;20.67;;;10.70;;
20828;SDS011;10575;50.124;8.582;2022-12-07T08:36:22;19.52;;;9.68;;
20828;SDS011;10575;50.124;8.582;2022-12-07T08:38:48;22.40;;;12.55;;
20828;SDS011;10575;50.124;8.582;2022-12-07T08:41:14;34.22;;;17.15;;
20828;SDS011;10575;50.124;8.582;2022-12-07T08:43:43;21.83;;;11.32;;
20828;SDS011;10575;50.124;8.582;2022-12-07T08:49:02;20.85;;;10.40;;
20828;SDS011;10575;50.124;8.582;2022-12-07T08:51:40;18.80;;;9.90;;
20828;SDS011;10575;50.124;8.582;2022-12-07T08:54:08;18.63;;;9.93;;
20828;SDS011;10575;50.124;8.582;2022-12-07T08:56:36;19.35;;;10.43;;
20828;SDS011;10575;50.124;8.582;2022-12-07T08:59:03;18.75;;;10.10;;
20828;SDS011;10575;50.124;8.582;2022-12-07T09:01:30;20.63;;;9.45;;
20828;SDS011;10575;50.124;8.582;2022-12-07T09:03:55;40.72;;;19.38;;
20828;SDS011;10575;50.124;8.582;2022-12-07T09:06:21;66.97;;;28.42;;
20828;SDS011;10575;50.124;8.582;2022-12-07T09:08:47;19.55;;;9.35;;
20828;SDS011;10575;50.124;8.582;2022-12-07T09:11:16;15.48;;;8.52;;
20828;SDS011;10575;50.124;8.582;2022-12-07T09:13:41;22.27;;;11.50;;
20828;SDS011;10575;50.124;8.582;2022-12-07T09:16:07;25.30;;;10.30;;
20828;SDS011;10575;50.124;8.582;2022-12-07T09:18:32;20.25;;;10.88;;
20828;SDS011;10575;50.124;8.582;2022-12-07T09:20:58;19.05;;;9.98;;
20828;SDS011;10575;50.124;8.582;2022-12-07T09:23:24;39.30;;;21.88;;
20828;SDS011;10575;50.124;8.582;2022-12-07T09:25:50;35.95;;;21.95;;
20828;SDS011;10575;50.124;8.582;2022-12-07T09:28:23;17.02;;;9.82;;
20828;SDS011;10575;50.124;8.582;2022-12-07T09:30:53;16.40;;;8.98;;
20828;SDS011;10575;50.124;8.582;2022-12-07T09:33:23;13.65;;;7.85;;
20828;SDS011;10575;50.124;8.582;2022-12-07T09:35:49;15.20;;;8.68;;
20828;SDS011;10575;50.124;8.582;2022-12-07T09:38:16;14.00;;;8.07;;
20828;SDS011;10575;50.124;8.582;2022-12-07T09:40:43;17.50;;;9.38;;
20828;SDS011;10575;50.124;8.582;2022-12-07T09:43:18;13.02;;;7.32;;
20828;SDS011;10575;50.124;8.582;2022-12-07T09:45:47;10.65;;;5.93;;
20828;SDS011;10575;50.124;8.582;2022-12-07T09:48:23;20.27;;;7.93;;
20828;SDS011;10575;50.124;8.582;2022-12-07T09:51:14;11.70;;;6.60;;
20828;SDS011;10575;50.124;8.582;2022-12-07T09:53:43;11.82;;;6.80;;
20828;SDS011;10575;50.124;8.582;2022-12-07T09:56:16;12.73;;;8.05;;
20828;SDS011;10575;50.124;8.582;2022-12-07T09:58:43;15.00;;;7.28;;
20828;SDS011;10575;50.124;8.582;2022-12-07T10:01:13;12.13;;;6.10;;
20828;SDS011;10575;50.124;8.582;2022-12-07T10:03:48;15.48;;;6.45;;
20828;SDS011;10575;50.124;8.582;2022-12-07T10:06:16;12.07;;;6.05;;
20828;SDS011;10575;50.124;8.582;2022-12-07T10:08:41;13.35;;;7.25;;
20828;SDS011;10575;50.124;8.582;2022-12-07T10:11:08;10.50;;;5.68;;
20828;SDS011;10575;50.124;8.582;2022-12-07T10:16:05;9.20;;;5.28;;
20828;SDS011;10575;50.124;8.582;2022-12-07T10:18:52;13.80;;;5.10;;
20828;SDS011;10575;50.124;8.582;2022-12-07T10:21:19;10.20;;;4.55;;
20828;SDS011;10575;50.124;8.582;2022-12-07T10:24:01;6.43;;;4.30;;
20828;SDS011;10575;50.124;8.582;2022-12-07T10:26:29;8.30;;;4.50;;
20828;SDS011;10575;50.124;8.582;2022-12-07T10:29:22;10.38;;;4.57;;
20828;SDS011;10575;50.124;8.582;2022-12-07T10:31:49;7.15;;;4.30;;
20828;SDS011;10575;50.124;8.582;2022-12-07T10:34:22;5.88;;;3.55;;
20828;SDS011;10575;50.124;8.582;2022-12-07T10:36:50;5.88;;;3.38;;
20828;SDS011;10575;50.124;8.582;2022-12-07T10:39:17;7.55;;;4.80;;
20828;SDS011;10575;50.124;8.582;2022-12-07T10:42:00;7.28;;;3.65;;
20828;SDS011;10575;50.124;8.582;2022-12-07T10:44:28;8.65;;;4.72;;
20828;SDS011;10575;50.124;8.582;2022-12-07T10:47:08;9.07;;;3.70;;
20828;SDS011;10575;50.124;8.582;2022-12-07T10:56:00;7.97;;;3.22;;
20828;SDS011;10575;50.124;8.582;2022-12-07T11:01:49;7.07;;;3.33;;
20828;SDS011;10575;50.124;8.582;2022-12-07T11:04:33;7.28;;;4.00;;
20828;SDS011;10575;50.124;8.582;2022-12-07T11:07:22;6.90;;;3.40;;
20828;SDS011;10575;50.124;8.582;2022-12-07T11:16:07;7.35;;;3.40;;
20828;SDS011;10575;50.124;8.582;2022-12-07T11:19:06;8.18;;;3.10;;
20828;SDS011;10575;50.124;8.582;2022-12-07T11:21:57;8.38;;;4.95;;
20828;SDS011;10575;50.124;8.582;2022-12-07T11:24:27;6.50;;;4.15;;
20828;SDS011;10575;50.124;8.582;2022-12-07T11:32:59;9.85;;;2.97;;
20828;SDS011;10575;50.124;8.582;2022-12-07T11:38:59;7.35;;;3.22;;
20828;SDS011;10575;50.124;8.582;2022-12-07T11:41:37;6.95;;;2.63;;
20828;SDS011;10575;50.124;8.582;2022-12-07T11:44:06;5.15;;;2.85;;
20828;SDS011;10575;50.124;8.582;2022-12-07T11:46:54;4.47;;;2.67;;
20828;SDS011;10575;50.124;8.582;2022-12-07T11:49:43;6.82;;;2.60;;
20828;SDS011;10575;50.124;8.582;2022-12-07T11:52:42;9.30;;;2.83;;
20828;SDS011;10575;50.124;8.582;2022-12-07T11:55:16;5.10;;;2.53;;
20828;SDS011;10575;50.124;8.582;2022-12-07T11:57:52;6.45;;;2.75;;
20828;SDS011;10575;50.124;8.582;2022-12-07T12:00:26;7.38;;;3.42;;
20828;SDS011;10575;50.124;8.582;2022-12-07T12:03:03;6.53;;;3.35;;
20828;SDS011;10575;50.124;8.582;2022-12-07T12:05:40;9.38;;;3.28;;
20828;SDS011;10575;50.124;8.582;2022-12-07T12:08:16;6.25;;;3.17;;
20828;SDS011;10575;50.124;8.582;2022-12-07T12:14:00;5.20;;;2.78;;
20828;SDS011;10575;50.124;8.582;2022-12-07T12:16:47;4.72;;;2.88;;
20828;SDS011;10575;50.124;8.582;2022-12-07T12:19:32;11.45;;;3.00;;
20828;SDS011;10575;50.124;8.582;2022-12-07T12:22:18;5.28;;;3.05;;
20828;SDS011;10575;50.124;8.582;2022-12-07T12:24:47;5.88;;;3.00;;
20828;SDS011;10575;50.124;8.582;2022-12-07T12:27:38;6.93;;;2.80;;
20828;SDS011;10575;50.124;8.582;2022-12-07T12:30:05;5.28;;;2.95;;
20828;SDS011;10575;50.124;8.582;2022-12-07T12:32:48;5.55;;;2.88;;
20828;SDS011;10575;50.124;8.582;2022-12-07T12:35:20;5.30;;;2.65;;
20828;SDS011;10575;50.124;8.582;2022-12-07T12:38:21;7.85;;;2.65;;
20828;SDS011;10575;50.124;8.582;2022-12-07T12:40:49;6.72;;;2.42;;
20828;SDS011;10575;50.124;8.582;2022-12-07T12:51:40;6.78;;;2.78;;
20828;SDS011;10575;50.124;8.582;2022-12-07T12:54:26;7.65;;;2.85;;
20828;SDS011;10575;50.124;8.582;2022-12-07T13:02:37;7.15;;;2.50;;
20828;SDS011;10575;50.124;8.582;2022-12-07T13:20:46;5.63;;;2.55;;
20828;SDS011;10575;50.124;8.582;2022-12-07T13:23:14;4.47;;;2.15;;
20828;SDS011;10575;50.124;8.582;2022-12-07T13:25:54;3.08;;;1.85;;
20828;SDS011;10575;50.124;8.582;2022-12-07T13:28:26;5.25;;;1.75;;
20828;SDS011;10575;50.124;8.582;2022-12-07T13:31:02;4.40;;;1.60;;
20828;SDS011;10575;50.124;8.582;2022-12-07T13:33:35;5.60;;;2.22;;
20828;SDS011;10575;50.124;8.582;2022-12-07T13:36:01;2.97;;;1.95;;
20828;SDS011;10575;50.124;8.582;2022-12-07T13:38:31;2.63;;;1.60;;
20828;SDS011;10575;50.124;8.582;2022-12-07T13:41:16;3.80;;;2.25;;
20828;SDS011;10575;50.124;8.582;2022-12-07T13:43:48;3.20;;;1.80;;
20828;SDS011;10575;50.124;8.582;2022-12-07T13:46:19;6.57;;;2.38;;
20828;SDS011;10575;50.124;8.582;2022-12-07T13:48:50;3.13;;;1.90;;
20828;SDS011;10575;50.124;8.582;2022-12-07T13:51:20;5.30;;;2.90;;
20828;SDS011;10575;50.124;8.582;2022-12-07T13:53:52;4.25;;;2.30;;
20828;SDS011;10575;50.124;8.582;2022-12-07T13:56:21;3.72;;;2.30;;
20828;SDS011;10575;50.124;8.582;2022-12-07T13:58:50;3.63;;;2.17;;
20828;SDS011;10575;50.124;8.582;2022-12-07T14:01:16;5.88;;;2.30;;
20828;SDS011;10575;50.124;8.582;2022-12-07T14:03:42;4.63;;;2.20;;
20828;SDS011;10575;50.124;8.582;2022-12-07T14:08:40;4.85;;;2.10;;
20828;SDS011;10575;50.124;8.582;2022-12-07T14:11:06;5.70;;;2.50;;
20828;SDS011;10575;50.124;8.582;2022-12-07T14:19:00;5.95;;;2.55;;
20828;SDS011;10575;50.124;8.582;2022-12-07T14:21:31;6.82;;;2.85;;
20828;SDS011;10575;50.124;8.582;2022-12-07T14:24:03;5.90;;;3.13;;
20828;SDS011;10575;50.124;8.582;2022-12-07T14:26:34;10.52;;;3.80;;
20828;SDS011;10575;50.124;8.582;2022-12-07T14:31:51;5.80;;;2.78;;
20828;SDS011;10575;50.124;8.582;2022-12-07T14:34:19;7.18;;;3.00;;
20828;SDS011;10575;50.124;8.582;2022-12-07T14:36:46;7.40;;;2.80;;
20828;SDS011;10575;50.124;8.582;2022-12-07T14:39:11;5.97;;;3.00;;
20828;SDS011;10575;50.124;8.582;2022-12-07T14:41:37;6.50;;;2.90;;
20828;SDS011;10575;50.124;8.582;2022-12-07T14:44:21;6.22;;;2.70;;
20828;SDS011;10575;50.124;8.582;2022-12-07T14:46:48;12.10;;;3.22;;
20828;SDS011;10575;50.124;8.582;2022-12-07T14:49:14;8.20;;;3.40;;
20828;SDS011;10575;50.124;8.582;2022-12-07T14:51:40;8.52;;;2.95;;
20828;SDS011;10575;50.124;8.582;2022-12-07T14:54:11;8.50;;;3.28;;
20828;SDS011;10575;50.124;8.582;2022-12-07T14:56:41;10.85;;;3.38;;
20828;SDS011;10575;50.124;8.582;2022-12-07T14:59:08;10.82;;;5.50;;
20828;SDS011;10575;50.124;8.582;2022-12-07T15:01:34;12.23;;;6.35;;
20828;SDS011;10575;50.124;8.582;2022-12-07T15:04:00;9.57;;;4.60;;
20828;SDS011;10575;50.124;8.582;2022-12-07T15:06:25;11.15;;;3.97;;
20828;SDS011;10575;50.124;8.582;2022-12-07T15:08:51;10.98;;;3.40;;
20828;SDS011;10575;50.124;8.582;2022-12-07T15:11:17;9.25;;;3.35;;
20828;SDS011;10575;50.124;8.582;2022-12-07T15:13:43;15.48;;;3.80;;
20828;SDS011;10575;50.124;8.582;2022-12-07T15:16:27;8.40;;;3.33;;
20828;SDS011;10575;50.124;8.582;2022-12-07T15:18:53;8.95;;;2.85;;
20828;SDS011;10575;50.124;8.582;2022-12-07T15:21:18;9.40;;;3.20;;
20828;SDS011;10575;50.124;8.582;2022-12-07T15:23:45;7.43;;;2.97;;
20828;SDS011;10575;50.124;8.582;2022-12-07T15:26:11;9.75;;;3.17;;
20828;SDS011;10575;50.124;8.582;2022-12-07T15:28:37;12.85;;;3.22;;
20828;SDS011;10575;50.124;8.582;2022-12-07T15:31:03;13.55;;;3.40;;
20828;SDS011;10575;50.124;8.582;2022-12-07T15:33:28;10.23;;;3.47;;
20828;SDS011;10575;50.124;8.582;2022-12-07T15:35:54;8.55;;;3.33;;
20828;SDS011;10575;50.124;8.582;2022-12-07T15:38:19;11.38;;;4.15;;
20828;SDS011;10575;50.124;8.582;2022-12-07T15:40:48;12.23;;;4.03;;
20828;SDS011;10575;50.124;8.582;2022-12-07T15:43:13;8.70;;;3.85;;
20828;SDS011;10575;50.124;8.582;2022-12-07T15:45:57;12.90;;;4.25;;
20828;SDS011;10575;50.124;8.582;2022-12-07T15:48:24;20.55;;;5.00;;
20828;SDS011;10575;50.124;8.582;2022-12-07T15:50:49;13.93;;;4.35;;
20828;SDS011;10575;50.124;8.582;2022-12-07T15:53:15;10.43;;;4.38;;
20828;SDS011;10575;50.124;8.582;2022-12-07T15:55:40;9.95;;;4.18;;
20828;SDS011;10575;50.124;8.582;2022-12-07T15:58:06;15.00;;;4.40;;
20828;SDS011;10575;50.124;8.582;2022-12-07T16:00:32;13.50;;;3.95;;
20828;SDS011;10575;50.124;8.582;2022-12-07T16:02:58;10.52;;;4.50;;
20828;SDS011;10575;50.124;8.582;2022-12-07T16:05:23;10.82;;;3.67;;
20828;SDS011;10575;50.124;8.582;2022-12-07T16:07:49;13.52;;;4.30;;
20828;SDS011;10575;50.124;8.582;2022-12-07T16:10:14;7.68;;;3.42;;
20828;SDS011;10575;50.124;8.582;2022-12-07T16:12:41;7.13;;;3.17;;
20828;SDS011;10575;50.124;8.582;2022-12-07T16:15:07;6.60;;;3.45;;
20828;SDS011;10575;50.124;8.582;2022-12-07T16:17:33;10.55;;;3.55;;
20828;SDS011;10575;50.124;8.582;2022-12-07T16:19:59;9.68;;;3.90;;
20828;SDS011;10575;50.124;8.582;2022-12-07T16:22:24;9.05;;;3.35;;
20828;SDS011;10575;50.124;8.582;2022-12-07T16:24:50;8.55;;;3.42;;
20828;SDS011;10575;50.124;8.582;2022-12-07T16:27:15;11.20;;;3.60;;
20828;SDS011;10575;50.124;8.582;2022-12-07T16:29:41;13.05;;;3.65;;
20828;SDS011;10575;50.124;8.582;2022-12-07T16:32:07;9.60;;;3.85;;
20828;SDS011;10575;50.124;8.582;2022-12-07T16:34:32;13.43;;;3.72;;